Jonah, Texas
Current Conditions -  °F | °C
As of 6:35 AM on Monday 24 Nov 2014 (Local Time) from KGTU Reporting Station
Clear Clear  
Wind Chill: 40°   Ceiling: Unl
Heat Index: 45°   Visibility: 10mi
Dew Point: 36°   Wind: 8mph
Humidity: 71%   Direction: 300°WNW
Pressure: 30"   Gusts: NA
Location:  30.6233°N, 97.6645°W
Report Text: KGTU 241235Z 30007KT 10SM CLR 07/02 A3000 RMK AO1
Loading
Personal Weather Stations






























Interactive Weather Map New forecast layout! Learn more

10-Day Weather Forecast

Advertisements
Track Severe Weather on mobile